Time;durP1;ratioP1;P1;durP2;ratioP2;P2;SDS_P1;SDS_P2;PMS_P1;PMS_P2;Temp;Humidity;BMP_temperature;BMP_pressure;BME280_temperature;BME280_humidity;BME280_pressure;Samples;Min_cycle;Max_cycle;Signal;HPM_P1;HPM_P2
2021/07/01 00:00:15;;;;;;;3.60;1.48;;;;;;;13.90;89.13;99278.03;2021216;80;20165;-82
2021/07/01 00:03:17;;;;;;;4.07;1.64;;;;;;;13.92;89.40;99275.38;2021318;80;20169;-84
2021/07/01 00:06:20;;;;;;;3.29;1.33;;;;;;;13.90;89.50;99270.19;2019768;80;20207;-83
2021/07/01 00:09:24;;;;;;;1.81;1.56;;;;;;;13.91;89.49;99268.44;2017017;80;20218;-81
2021/07/01 00:12:26;;;;;;;3.90;1.79;;;;;;;13.86;89.70;99265.94;2019498;80;20165;-83
2021/07/01 00:15:31;;;;;;;3.28;1.48;;;;;;;13.88;89.87;99264.16;2021793;80;20250;-84
2021/07/01 00:18:34;;;;;;;2.64;1.52;;;;;;;13.91;89.96;99258.00;2021152;80;20161;-83
2021/07/01 00:21:37;;;;;;;3.55;1.48;;;;;;;13.92;90.01;99262.31;2021509;80;20232;-83
2021/07/01 00:24:39;;;;;;;5.11;1.70;;;;;;;13.91;89.93;99255.38;2019463;80;20202;-84
2021/07/01 00:27:42;;;;;;;8.31;2.47;;;;;;;13.91;89.93;99255.38;2019554;80;20161;-83
2021/07/01 00:30:45;;;;;;;2.46;1.71;;;;;;;13.90;89.94;99257.13;2018748;80;20165;-82
2021/07/01 00:33:47;;;;;;;2.91;1.70;;;;;;;13.93;90.03;99263.19;2018482;80;20185;-82
2021/07/01 00:36:50;;;;;;;5.29;1.90;;;;;;;13.95;90.03;99264.00;2017948;80;20235;-82
2021/07/01 00:39:53;;;;;;;5.06;1.60;;;;;;;13.89;90.09;99268.47;2018830;80;20198;-82
2021/07/01 00:42:55;;;;;;;6.28;1.52;;;;;;;13.87;90.20;99272.88;2019944;80;20203;-82
2021/07/01 00:45:58;;;;;;;3.24;1.33;;;;;;;13.87;90.29;99270.25;2017547;78;22828;-82
2021/07/01 00:49:01;;;;;;;2.96;1.25;;;;;;;13.87;90.27;99266.78;2018398;80;20224;-83
2021/07/01 00:52:04;;;;;;;2.99;1.54;;;;;;;13.85;90.38;99263.34;2016267;80;20177;-81
2021/07/01 00:55:09;;;;;;;2.83;1.59;;;;;;;13.85;90.65;99266.81;2018091;80;20203;-81
2021/07/01 00:58:12;;;;;;;1.41;1.30;;;;;;;13.89;90.56;99259.78;2019019;80;20193;-83
2021/07/01 01:01:14;;;;;;;3.95;1.46;;;;;;;13.90;90.50;99262.34;2020626;80;20246;-82
2021/07/01 01:04:17;;;;;;;3.35;1.51;;;;;;;13.91;90.38;99253.63;2014566;80;20356;-80
2021/07/01 01:07:19;;;;;;;3.71;1.40;;;;;;;13.90;90.38;99251.91;2013753;80;20203;-81
2021/07/01 01:10:22;;;;;;;2.54;1.30;;;;;;;13.93;90.35;99252.75;2016742;80;20189;-82
2021/07/01 01:13:25;;;;;;;2.88;1.19;;;;;;;13.95;90.21;99253.56;2019303;80;20205;-83
2021/07/01 01:16:28;;;;;;;3.51;1.40;;;;;;;13.93;90.13;99257.97;2026404;80;20192;-82
2021/07/01 01:19:31;;;;;;;1.77;1.40;;;;;;;13.91;90.06;99258.00;2021750;77;20426;-81
2021/07/01 01:22:33;;;;;;;2.53;1.33;;;;;;;13.92;90.15;99259.72;2021937;80;20212;-81
2021/07/01 01:25:36;;;;;;;6.36;1.50;;;;;;;13.93;90.20;99260.56;2021363;80;20189;-82
2021/07/01 01:28:39;;;;;;;2.99;1.05;;;;;;;13.95;90.18;99264.00;2021403;80;20194;-82
2021/07/01 01:31:41;;;;;;;1.88;1.20;;;;;;;13.94;90.11;99257.06;2026091;78;20391;-81
2021/07/01 01:34:44;;;;;;;4.25;1.45;;;;;;;13.94;90.36;99252.72;2027908;80;20228;-81
2021/07/01 01:37:46;;;;;;;3.03;1.09;;;;;;;13.97;90.46;99254.41;2024824;80;20185;-83
2021/07/01 01:40:49;;;;;;;3.21;1.44;;;;;;;13.98;90.60;99256.09;2026953;80;20233;-82
2021/07/01 01:43:53;;;;;;;2.78;1.64;;;;;;;13.99;90.31;99263.06;2022413;80;20168;-84
2021/07/01 01:46:55;;;;;;;3.95;1.14;;;;;;;13.98;90.07;99264.81;2025074;78;20640;-84
2021/07/01 01:49:58;;;;;;;4.11;1.51;;;;;;;14.00;89.96;99260.41;2031966;80;20234;-85
2021/07/01 01:53:01;;;;;;;2.41;1.20;;;;;;;13.98;89.78;99266.56;2028856;80;20148;-84
2021/07/01 01:56:03;;;;;;;4.94;1.23;;;;;;;13.96;89.82;99263.97;2024532;80;20141;-85
2021/07/01 02:02:26;;;;;;;2.97;1.21;;;;;;;13.94;89.62;99276.19;2276261;69;20273;-85
2021/07/01 02:05:30;;;;;;;2.81;1.10;;;;;;;13.92;89.67;99270.16;2035443;80;20281;-83
2021/07/01 02:08:33;;;;;;;4.99;1.11;;;;;;;13.91;89.50;99264.06;2030930;80;20184;-81
2021/07/01 02:11:36;;;;;;;1.44;0.98;;;;;;;13.89;89.59;99258.03;2028561;80;20222;-81
2021/07/01 02:14:39;;;;;;;3.50;1.20;;;;;;;13.88;89.67;99264.16;2028848;80;20180;-83
2021/07/01 02:17:42;;;;;;;1.91;1.10;;;;;;;13.89;89.77;99268.47;2027686;77;210099;-82
2021/07/01 02:20:46;;;;;;;2.11;1.10;;;;;;;13.89;89.70;99270.22;2031487;80;20183;-87
2021/07/01 02:23:49;;;;;;;3.39;1.27;;;;;;;13.89;89.78;99267.63;2032163;80;20192;-82
2021/07/01 02:26:52;;;;;;;2.33;1.38;;;;;;;13.89;89.62;99265.88;2031521;80;20168;-83
2021/07/01 02:29:55;;;;;;;2.55;1.30;;;;;;;13.85;89.38;99266.81;2029798;80;20167;-82
2021/07/01 02:32:58;;;;;;;2.25;1.17;;;;;;;13.85;89.23;99273.78;2027097;77;210534;-82
2021/07/01 02:36:05;;;;;;;2.44;1.27;;;;;;;13.84;89.38;99274.69;2031090;80;20209;-83
2021/07/01 02:39:08;;;;;;;7.56;1.33;;;;;;;13.84;89.27;99266.84;2030191;80;20193;-81
2021/07/01 02:42:12;;;;;;;3.80;1.16;;;;;;;13.83;89.11;99262.53;2031335;80;20215;-82
2021/07/01 02:45:15;;;;;;;3.38;1.10;;;;;;;13.83;89.07;99263.38;2031424;80;20168;-83
2021/07/01 02:48:18;;;;;;;5.04;2.01;;;;;;;13.83;89.22;99263.38;2030001;80;20217;-82
2021/07/01 02:51:24;;;;;;;2.29;1.23;;;;;;;13.84;89.17;99264.25;2033530;80;20352;-83
2021/07/01 02:54:27;;;;;;;3.39;1.08;;;;;;;13.80;88.85;99262.56;2031081;80;20176;-82
2021/07/01 02:57:30;;;;;;;5.20;2.17;;;;;;;13.78;88.81;99267.81;2030733;80;20168;-83
2021/07/01 03:00:34;;;;;;;1.44;1.20;;;;;;;13.77;88.96;99263.47;2029303;77;161038;-84
2021/07/01 03:03:37;;;;;;;1.29;1.19;;;;;;;13.77;89.04;99270.44;2037929;80;20136;-86
2021/07/01 03:06:40;;;;;;;6.19;1.39;;;;;;;13.75;88.83;99262.66;2033058;80;20163;-86
2021/07/01 03:09:43;;;;;;;4.66;1.58;;;;;;;13.75;88.93;99273.09;2033337;80;20168;-83
2021/07/01 03:12:46;;;;;;;2.24;1.16;;;;;;;13.73;89.02;99274.88;2030803;80;20217;-81
2021/07/01 03:15:52;;;;;;;3.70;1.30;;;;;;;13.71;88.96;99278.41;2028144;77;201370;-83
2021/07/01 03:18:55;;;;;;;2.81;1.16;;;;;;;13.72;89.08;99274.91;2031235;80;20176;-84
2021/07/01 03:21:58;;;;;;;4.40;1.52;;;;;;;13.71;89.01;99276.66;2032072;80;20276;-84
2021/07/01 03:25:01;;;;;;;5.86;1.30;;;;;;;13.73;89.10;99274.88;2034570;80;20227;-83
2021/07/01 03:28:07;;;;;;;4.71;1.21;;;;;;;13.74;89.01;99283.56;2032964;80;20274;-84
2021/07/01 03:31:11;;;;;;;4.36;1.26;;;;;;;13.74;89.02;99276.59;2034895;80;20224;-85
2021/07/01 03:34:14;;;;;;;3.22;1.60;;;;;;;13.74;89.08;99279.19;2033594;80;20199;-83
2021/07/01 03:37:18;;;;;;;3.38;1.55;;;;;;;13.76;89.14;99274.81;2034107;80;20194;-84
2021/07/01 03:40:20;;;;;;;5.06;1.55;;;;;;;13.75;89.06;99274.84;2031310;80;20176;-83
2021/07/01 03:43:23;;;;;;;3.10;1.81;;;;;;;13.71;88.90;99275.78;2032541;80;20168;-85
2021/07/01 03:46:26;;;;;;;4.76;1.31;;;;;;;13.70;88.97;99272.34;2036383;80;20172;-81
2021/07/01 03:49:29;;;;;;;2.94;1.44;;;;;;;13.71;88.96;99273.19;2034116;80;20175;-83
2021/07/01 03:52:32;;;;;;;3.99;1.49;;;;;;;13.70;89.02;99276.69;2033493;80;20272;-83
2021/07/01 03:55:35;;;;;;;1.83;1.49;;;;;;;13.69;89.15;99273.22;2029543;80;20197;-83
2021/07/01 03:58:39;;;;;;;5.94;1.69;;;;;;;13.66;89.08;99280.25;2029944;80;20191;-81
2021/07/01 04:01:42;;;;;;;1.77;1.48;;;;;;;13.66;88.89;99280.25;2028423;80;20180;-82
2021/07/01 04:04:45;;;;;;;6.64;1.70;;;;;;;13.68;88.78;99281.09;2029618;80;20200;-82
2021/07/01 04:07:48;;;;;;;3.78;1.48;;;;;;;13.69;88.78;99285.41;2029268;80;20188;-82
2021/07/01 04:10:51;;;;;;;3.50;1.61;;;;;;;13.67;88.82;99285.44;2028510;80;20253;-82
2021/07/01 04:13:54;;;;;;;4.46;1.95;;;;;;;13.67;89.06;99285.44;2029847;80;20259;-83
2021/07/01 04:16:57;;;;;;;3.36;1.71;;;;;;;13.62;89.08;99284.66;2029139;80;20240;-84
2021/07/01 04:20:00;;;;;;;3.89;1.96;;;;;;;13.63;89.38;99283.75;2031556;80;20171;-82
2021/07/01 04:23:04;;;;;;;4.81;2.06;;;;;;;13.63;89.33;99290.72;2031430;80;20196;-83
2021/07/01 04:26:07;;;;;;;4.88;1.85;;;;;;;13.65;89.49;99296.78;2029336;80;20567;-82
2021/07/01 04:29:10;;;;;;;3.05;2.00;;;;;;;13.67;89.50;99297.63;2031241;80;20649;-80
2021/07/01 04:32:13;;;;;;;6.19;2.28;;;;;;;13.66;89.61;99294.16;2023937;77;140700;-81
2021/07/01 04:35:16;;;;;;;2.92;1.80;;;;;;;13.68;89.74;99292.38;2025926;80;20183;-81
2021/07/01 04:38:19;;;;;;;5.65;1.98;;;;;;;13.71;89.71;99289.72;2027573;80;20348;-81
2021/07/01 04:41:22;;;;;;;3.84;1.76;;;;;;;13.73;89.81;99290.53;2026309;80;20220;-81
2021/07/01 04:44:25;;;;;;;3.67;2.19;;;;;;;13.77;89.94;99284.34;2022449;80;20200;-80
2021/07/01 04:47:28;;;;;;;5.38;2.28;;;;;;;13.84;90.07;99279.91;2014959;77;20711;-80
2021/07/01 04:50:31;;;;;;;3.88;2.38;;;;;;;13.87;90.03;99285.06;2014960;80;20290;-80
2021/07/01 04:53:33;;;;;;;3.29;2.04;;;;;;;13.90;89.84;99283.25;2018337;80;20185;-81
2021/07/01 04:56:46;;;;;;;4.19;2.19;;;;;;;13.91;89.71;99286.72;2019529;80;20188;-80
2021/07/01 04:59:48;;;;;;;4.50;2.05;;;;;;;13.93;89.49;99291.91;2020834;80;20251;-83
2021/07/01 05:02:51;;;;;;;5.01;2.44;;;;;;;13.94;89.31;99284.03;2026883;80;25440;-82
2021/07/01 05:05:54;;;;;;;4.54;2.11;;;;;;;13.94;88.98;99285.78;2027536;80;20215;-82
2021/07/01 05:08:56;;;;;;;4.40;2.42;;;;;;;13.94;88.97;99301.44;2027907;80;20201;-81
2021/07/01 05:11:59;;;;;;;4.20;2.36;;;;;;;13.93;89.15;99297.13;2024056;80;20197;-80
2021/07/01 05:15:03;;;;;;;4.90;2.47;;;;;;;13.95;89.16;99297.94;2026952;80;20375;-81
2021/07/01 05:18:06;;;;;;;3.61;2.13;;;;;;;13.98;89.54;99297.88;2025547;77;20495;-79
2021/07/01 05:21:08;;;;;;;6.01;2.50;;;;;;;13.99;89.29;99297.00;2022811;80;20283;-79
2021/07/01 05:24:11;;;;;;;3.61;2.17;;;;;;;13.96;89.28;99300.53;2020182;80;20237;-79
2021/07/01 05:27:13;;;;;;;2.63;2.21;;;;;;;13.96;89.41;99302.28;2023826;80;20221;-75
2021/07/01 05:30:16;;;;;;;3.38;2.45;;;;;;;13.98;89.54;99297.88;2023377;80;20203;-79
2021/07/01 05:33:19;;;;;;;3.16;2.72;;;;;;;13.91;89.11;99300.63;2018754;80;20213;-79
2021/07/01 05:36:22;;;;;;;3.78;2.64;;;;;;;13.93;89.23;99304.94;2018801;80;20680;-78
2021/07/01 05:39:24;;;;;;;3.64;2.66;;;;;;;13.97;89.37;99304.00;2017674;80;20228;-78
2021/07/01 05:42:27;;;;;;;3.86;2.56;;;;;;;13.99;89.06;99304.81;2017240;80;21045;-77
2021/07/01 05:45:29;;;;;;;4.60;2.94;;;;;;;14.00;88.69;99306.53;2014895;78;22429;-77
2021/07/01 05:48:32;;;;;;;4.25;2.64;;;;;;;13.98;88.67;99303.97;2012271;80;20212;-77
2021/07/01 05:51:36;;;;;;;3.34;2.31;;;;;;;13.95;88.58;99311.00;2012419;80;20156;-80
2021/07/01 05:54:52;;;;;;;9.35;3.08;;;;;;;13.91;88.38;99305.84;2020299;80;20200;-81
2021/07/01 05:57:54;;;;;;;4.09;2.41;;;;;;;13.84;88.20;99312.09;2018369;80;20268;-81
2021/07/01 06:00:57;;;;;;;3.14;2.35;;;;;;;13.82;88.41;99311.25;2018945;77;20985;-80
2021/07/01 06:04:11;;;;;;;3.35;2.10;;;;;;;13.77;88.50;99317.44;2022926;80;20629;-81
2021/07/01 06:07:17;;;;;;;3.51;2.06;;;;;;;13.79;88.48;99319.13;2023508;80;20754;-80
2021/07/01 06:10:24;;;;;;;2.46;2.25;;;;;;;13.83;88.57;99325.16;2020173;80;21065;-80
2021/07/01 06:13:28;;;;;;;2.56;2.14;;;;;;;13.86;88.37;99333.78;2023672;80;20244;-82
2021/07/01 06:16:33;;;;;;;2.47;1.91;;;;;;;13.84;88.32;99324.28;2023303;77;20216;-82
2021/07/01 06:19:37;;;;;;;1.70;1.60;;;;;;;13.84;88.56;99325.13;2020609;80;20244;-82
2021/07/01 06:22:41;;;;;;;4.07;1.80;;;;;;;13.85;88.54;99326.84;2023395;80;20200;-81
2021/07/01 06:25:48;;;;;;;3.40;1.45;;;;;;;13.88;88.38;99325.94;2020939;80;20180;-80
2021/07/01 06:28:51;;;;;;;3.25;1.60;;;;;;;13.90;88.21;99331.97;2018915;80;20202;-80
2021/07/01 06:31:53;;;;;;;7.80;1.90;;;;;;;13.92;88.20;99327.59;2016786;80;20208;-81
2021/07/01 06:34:56;;;;;;;4.10;1.63;;;;;;;13.88;88.03;99334.63;2022841;80;20278;-81
2021/07/01 06:38:07;;;;;;;2.00;1.51;;;;;;;13.94;88.20;99328.41;2019742;80;20218;-81
2021/07/01 06:41:11;;;;;;;3.21;1.77;;;;;;;13.97;88.32;99330.97;2021090;80;20250;-80
2021/07/01 06:44:14;;;;;;;2.47;1.81;;;;;;;13.92;88.17;99327.59;2020885;80;20212;-81
2021/07/01 06:47:17;;;;;;;3.13;1.64;;;;;;;13.96;88.27;99337.06;2019756;77;22788;-80
2021/07/01 06:50:22;;;;;;;2.69;1.70;;;;;;;14.00;88.21;99338.72;2017498;80;20651;-80
2021/07/01 06:53:27;;;;;;;1.77;1.60;;;;;;;13.99;88.11;99342.22;2020187;80;20226;-81
2021/07/01 06:56:38;;;;;;;3.06;1.45;;;;;;;14.06;88.39;99346.47;2021479;80;21488;-80
2021/07/01 06:59:41;;;;;;;1.36;1.20;;;;;;;14.07;88.16;99350.78;2022929;80;20215;-80
2021/07/01 07:02:45;;;;;;;2.59;1.30;;;;;;;14.10;87.89;99350.72;2023915;77;21370;-82
2021/07/01 07:05:49;;;;;;;2.95;1.06;;;;;;;14.04;87.63;99353.47;2024465;80;20616;-80
2021/07/01 07:08:52;;;;;;;3.79;0.90;;;;;;;14.02;87.91;99354.38;2021511;80;20241;-80
2021/07/01 07:11:55;;;;;;;0.75;0.75;;;;;;;14.02;88.07;99354.38;2020210;80;20776;-79
2021/07/01 07:14:59;;;;;;;2.25;0.70;;;;;;;14.03;88.00;99354.34;2022980;80;20244;-79
2021/07/01 07:18:13;;;;;;;0.80;0.75;;;;;;;14.04;88.13;99357.81;2019884;77;20290;-81
2021/07/01 07:21:19;;;;;;;0.80;0.80;;;;;;;14.05;88.29;99359.56;2029291;80;20171;-79
2021/07/01 07:24:28;;;;;;;1.11;0.90;;;;;;;14.04;88.18;99366.53;2020815;80;20198;-79
2021/07/01 07:27:32;;;;;;;1.40;0.91;;;;;;;14.05;88.21;99373.47;2021610;80;20183;-82
2021/07/01 07:30:35;;;;;;;1.31;0.86;;;;;;;14.04;88.10;99373.50;2034533;77;22043;-82
2021/07/01 07:33:38;;;;;;;1.38;1.20;;;;;;;14.05;88.60;99375.22;2024913;80;20257;-82
2021/07/01 07:36:40;;;;;;;2.72;1.36;;;;;;;14.09;88.89;99376.88;2030446;80;21373;-80
2021/07/01 07:39:44;;;;;;;1.29;1.19;;;;;;;14.11;88.66;99380.31;2029598;80;20164;-83
2021/07/01 07:42:47;;;;;;;1.56;1.41;;;;;;;14.14;88.51;99373.28;2029918;80;20164;-82
2021/07/01 07:45:52;;;;;;;2.55;1.55;;;;;;;14.17;88.09;99374.97;2027258;80;20192;-80
2021/07/01 07:48:55;;;;;;;3.36;1.79;;;;;;;14.21;88.33;99374.91;2030869;80;20184;-81
2021/07/01 07:52:03;;;;;;;3.64;1.70;;;;;;;14.21;88.03;99374.91;2031155;80;20171;-83
2021/07/01 07:55:06;;;;;;;2.24;1.51;;;;;;;14.22;87.79;99375.75;2024735;80;20226;-78
2021/07/01 07:58:12;;;;;;;3.03;1.58;;;;;;;14.30;88.17;99371.22;2019787;80;20725;-79
2021/07/01 08:01:15;;;;;;;1.71;1.50;;;;;;;14.35;87.98;99372.00;2027149;80;20193;-80
2021/07/01 08:04:21;;;;;;;2.36;1.66;;;;;;;14.38;87.47;99374.56;2031456;80;20223;-82
2021/07/01 08:07:24;;;;;;;2.69;1.74;;;;;;;14.37;87.72;99377.22;2020423;80;20183;-81
2021/07/01 08:10:33;;;;;;;1.63;1.52;;;;;;;14.41;87.10;99374.50;2031343;80;20204;-79
2021/07/01 08:13:37;;;;;;;2.16;1.76;;;;;;;14.42;86.92;99378.81;2027095;80;20626;-81
2021/07/01 08:16:44;;;;;;;2.28;1.74;;;;;;;14.51;87.14;99378.66;2025028;77;20391;-81
2021/07/01 08:19:47;;;;;;;2.55;1.90;;;;;;;14.67;86.71;99375.72;2017310;80;20199;-83
2021/07/01 08:22:52;;;;;;;2.92;1.77;;;;;;;14.91;86.47;99380.44;2026433;80;20218;-83
2021/07/01 08:25:55;;;;;;;2.20;1.90;;;;;;;15.23;86.10;99365.75;2027806;80;20181;-83
2021/07/01 08:28:58;;;;;;;1.66;1.50;;;;;;;15.66;85.76;99370.84;2024526;80;20896;-75
2021/07/01 08:32:06;;;;;;;2.09;1.54;;;;;;;16.03;84.27;99362.88;2027944;80;20202;-84
2021/07/01 08:35:13;;;;;;;1.95;1.63;;;;;;;16.33;82.51;99366.41;2019424;80;20184;-81
2021/07/01 08:38:15;;;;;;;3.33;1.70;;;;;;;16.33;80.43;99367.25;2018765;80;20180;-80
2021/07/01 08:41:24;;;;;;;2.30;1.46;;;;;;;16.23;79.75;99370.19;2023808;80;20208;-81
2021/07/01 08:44:36;;;;;;;2.26;1.30;;;;;;;16.05;79.49;99366.31;2019316;80;20212;-81
2021/07/01 08:47:42;;;;;;;4.97;1.39;;;;;;;15.67;78.95;99381.28;2024575;80;20923;-83
2021/07/01 09:02:01;;;;;;;2.50;1.45;;;;;;;15.63;82.35;99386.63;2022929;70;197809;-82
2021/07/01 09:05:10;;;;;;;1.56;1.46;;;;;;;15.72;81.68;99386.38;2020801;80;20257;-82
2021/07/01 09:08:14;;;;;;;1.89;1.70;;;;;;;15.77;80.66;99394.97;2020847;80;20201;-83
2021/07/01 09:11:26;;;;;;;1.84;1.54;;;;;;;15.76;80.50;99393.25;2025341;80;20191;-84
2021/07/01 09:14:31;;;;;;;3.24;1.55;;;;;;;15.62;80.09;99391.00;2022713;80;20177;-83
2021/07/01 09:17:47;;;;;;;4.55;1.67;;;;;;;15.59;80.41;99400.66;2020021;77;223808;-81
2021/07/01 09:24:26;;;;;;;2.74;1.67;;;;;;;15.46;80.22;99394.88;2068753;69;20252;-85
2021/07/01 09:27:30;;;;;;;2.89;1.80;;;;;;;15.55;81.35;99399.84;2027509;80;20181;-84
2021/07/01 09:30:38;;;;;;;2.47;1.86;;;;;;;15.73;81.15;99401.19;2023074;80;20157;-85
2021/07/01 09:33:45;;;;;;;2.30;1.81;;;;;;;15.87;80.68;99395.63;2021340;80;20173;-83
2021/07/01 09:36:48;;;;;;;2.61;1.91;;;;;;;16.00;80.22;99404.88;2022735;80;20194;-83
2021/07/01 09:39:52;;;;;;;3.17;1.83;;;;;;;16.13;80.02;99398.41;2019662;80;20298;-84
2021/07/01 09:49:43;;;;;;;2.17;1.74;;;;;;;16.39;78.51;99407.31;2067229;70;20289;-86
2021/07/01 09:52:56;;;;;;;2.90;1.70;;;;;;;16.25;77.81;99405.94;2170774;69;20258;-83
2021/07/01 09:59:58;;;;;;;2.19;1.70;;;;;;;15.87;77.37;99411.31;2165348;69;20132;-82
2021/07/01 10:03:09;;;;;;;3.80;1.85;;;;;;;15.73;77.90;99414.28;2027144;78;140099;-85
2021/07/01 10:06:16;;;;;;;2.94;1.77;;;;;;;15.70;78.53;99414.38;2027966;80;20173;-84
2021/07/01 10:16:21;;;;;;;5.09;1.99;;;;;;;16.51;77.50;99399.09;2055940;69;365020;-85
2021/07/01 10:19:25;;;;;;;;;;;;;;;16.77;75.83;99401.88;2035899;80;20132;-87
2021/07/01 10:25:49;;;;;;;2.92;1.42;;;;;;;16.91;74.03;99409.34;2142832;70;20147;-84
2021/07/01 10:47:41;;;;;;;2.09;1.50;;;;;;;16.33;74.64;99411.81;2253699;70;21272;-84
2021/07/01 10:54:15;;;;;;;3.28;1.48;;;;;;;16.57;75.80;99406.81;2042768;70;20197;-83
2021/07/01 10:57:19;;;;;;;2.75;1.45;;;;;;;16.71;74.57;99415.16;2013694;81;20168;-82
2021/07/01 11:04:02;;;;;;;3.72;1.66;;;;;;;16.58;74.35;99409.38;2024144;70;20319;-83
2021/07/01 11:07:05;;;;;;;1.71;1.19;;;;;;;16.57;74.49;99422.53;2017268;81;20118;-83
2021/07/01 11:10:11;;;;;;;3.35;1.24;;;;;;;16.62;74.91;99420.63;2016713;81;20269;-82
2021/07/01 11:13:14;;;;;;;2.83;1.25;;;;;;;16.65;73.41;99423.16;2014682;81;20197;-81
2021/07/01 11:16:17;;;;;;;2.90;1.45;;;;;;;16.81;73.59;99419.22;2010955;78;235628;-82
2021/07/01 11:19:23;;;;;;;1.59;1.20;;;;;;;16.99;72.43;99416.97;2013170;80;20134;-83
2021/07/01 11:23:00;;;;;;;1.91;1.23;;;;;;;17.24;72.58;99420.56;2012016;81;20222;-82
2021/07/01 11:26:29;;;;;;;2.89;1.36;;;;;;;17.43;71.41;99415.59;2012525;81;20284;-81
2021/07/01 11:29:41;;;;;;;1.48;1.20;;;;;;;17.37;70.40;99419.25;2014723;81;20185;-83
2021/07/01 11:32:45;;;;;;;1.54;1.44;;;;;;;17.18;69.31;99424.22;2016948;81;20181;-83
2021/07/01 11:35:50;;;;;;;1.27;1.10;;;;;;;17.08;70.16;99430.69;2013163;81;20199;-83
2021/07/01 11:39:06;;;;;;;2.29;1.60;;;;;;;16.84;69.57;99432.25;2016001;81;20217;-83
2021/07/01 11:42:09;;;;;;;2.79;1.40;;;;;;;16.77;70.69;99433.34;2014405;81;20161;-85
2021/07/01 11:45:13;;;;;;;2.22;1.29;;;;;;;16.75;70.77;99437.78;2016055;81;20173;-83
2021/07/01 11:48:19;;;;;;;2.78;1.30;;;;;;;16.79;71.18;99428.91;2012606;78;249093;-82
2021/07/01 11:51:25;;;;;;;2.36;1.19;;;;;;;16.90;71.70;99439.97;2016226;81;20146;-84
2021/07/01 11:54:29;;;;;;;3.25;1.30;;;;;;;17.03;71.46;99431.69;2018513;81;20199;-83
2021/07/01 11:57:32;;;;;;;1.48;1.25;;;;;;;17.02;70.07;99440.47;2020605;81;20174;-82
2021/07/01 12:00:35;;;;;;;1.41;1.21;;;;;;;17.16;70.59;99431.28;2012026;81;20202;-80
2021/07/01 12:03:38;;;;;;;2.53;1.34;;;;;;;17.36;70.30;99428.06;2006372;81;20225;-80
2021/07/01 12:10:17;;;;;;;3.71;1.39;;;;;;;17.75;66.87;99425.06;2029249;70;20206;-84
2021/07/01 12:16:41;;;;;;;1.42;1.24;;;;;;;19.13;64.17;99421.88;2031939;70;1600579;-83
2021/07/01 12:19:47;;;;;;;1.83;1.41;;;;;;;19.21;62.60;99418.94;2014337;81;20197;-83
2021/07/01 12:22:50;;;;;;;1.75;1.20;;;;;;;19.23;61.39;99420.63;2012556;81;20213;-86
2021/07/01 12:25:55;;;;;;;1.60;1.50;;;;;;;19.40;60.72;99414.69;2012482;81;20166;-83
2021/07/01 12:29:00;;;;;;;2.28;1.10;;;;;;;19.80;61.40;99413.09;2012196;81;20178;-87
2021/07/01 12:39:17;;;;;;;1.41;1.02;;;;;;;20.66;56.59;99418.19;2040850;70;20162;-84
2021/07/01 12:42:21;;;;;;;1.23;1.00;;;;;;;20.59;59.11;99411.44;2014654;81;20185;-85
2021/07/01 12:45:31;;;;;;;1.75;1.10;;;;;;;20.85;60.29;99405.84;2016174;81;20153;-85
2021/07/01 12:55:35;;;;;;;1.29;1.19;;;;;;;19.87;58.41;99411.91;2219189;70;20174;-84
2021/07/01 12:58:38;;;;;;;1.30;0.89;;;;;;;19.49;59.17;99411.69;2016227;80;20154;-84
2021/07/01 13:01:43;;;;;;;1.80;0.88;;;;;;;19.22;59.75;99403.13;2006785;81;1023807;-85
2021/07/01 13:08:11;;;;;;;1.21;1.01;;;;;;;18.76;63.09;99408.41;2082756;70;20174;-83
2021/07/01 13:14:34;;;;;;;;;;;;;;;18.54;63.64;99409.19;2174020;70;20280;-86
2021/07/01 13:17:39;;;;;;;4.94;0.98;;;;;;;18.58;64.08;99415.19;2008978;78;47884;-84
2021/07/01 13:27:47;;;;;;;1.80;0.90;;;;;;;19.62;61.94;99404.19;2254172;70;20147;-85
2021/07/01 13:38:26;;;;;;;0.98;0.60;;;;;;;20.30;57.77;99410.94;2102957;70;20138;-84
2021/07/01 13:45:23;;;;;;;1.01;0.75;;;;;;;19.81;58.76;99418.31;2066229;70;20318;-84
2021/07/01 13:48:30;;;;;;;3.56;0.75;;;;;;;19.51;58.98;99419.50;2013910;81;20178;-86
2021/07/01 13:51:38;;;;;;;1.77;0.70;;;;;;;19.16;60.04;99431.44;2017116;81;20207;-87
2021/07/01 14:01:26;;;;;;;1.83;0.80;;;;;;;18.43;62.82;99440.25;2020985;70;20288;-84
2021/07/01 14:19:17;;;;;;;0.66;0.63;;;;;;;17.95;64.39;99438.41;2028800;70;20174;-84
2021/07/01 14:25:46;;;;;;;0.60;0.60;;;;;;;17.87;64.71;99429.94;2135468;69;20209;-85
2021/07/01 14:28:59;;;;;;;1.46;0.60;;;;;;;17.93;65.46;99429.72;2022339;80;20167;-84
2021/07/01 14:32:01;;;;;;;1.59;0.71;;;;;;;18.02;65.44;99423.31;2022942;80;20191;-87
2021/07/01 14:45:08;;;;;;;1.86;0.82;;;;;;;18.30;63.15;99425.81;2098456;70;20163;-84
2021/07/01 15:08:40;;;;;;;3.05;1.11;;;;;;;19.66;58.41;99418.06;2135779;70;20228;-86
2021/07/01 15:15:24;;;;;;;1.33;1.23;;;;;;;19.17;61.58;99412.09;2177086;69;20177;-85
2021/07/01 15:22:10;;;;;;;2.21;1.44;;;;;;;18.76;62.37;99419.78;2015923;70;20237;-86
2021/07/01 15:28:26;;;;;;;1.96;1.60;;;;;;;18.46;63.32;99410.34;2142114;70;20209;-81
2021/07/01 15:31:31;;;;;;;2.36;1.35;;;;;;;18.31;65.11;99411.75;2019868;80;20258;-83
2021/07/01 15:34:37;;;;;;;3.05;1.91;;;;;;;18.21;65.06;99413.88;2019839;80;20222;-85
2021/07/01 15:37:41;;;;;;;1.66;1.56;;;;;;;18.12;64.85;99417.66;2021968;80;20177;-80
2021/07/01 15:40:44;;;;;;;3.35;1.90;;;;;;;18.07;65.34;99408.22;2017956;80;20191;-83
2021/07/01 15:43:47;;;;;;;3.33;2.09;;;;;;;18.06;65.84;99412.63;2017998;80;20189;-83
2021/07/01 15:46:57;;;;;;;2.29;2.06;;;;;;;18.07;65.97;99408.22;2017444;77;217194;-82
2021/07/01 15:50:04;;;;;;;3.25;2.00;;;;;;;18.08;65.75;99409.94;2018208;80;20173;-84
2021/07/01 15:53:14;;;;;;;2.81;2.00;;;;;;;18.10;65.73;99408.97;2018053;80;20242;-83
2021/07/01 16:03:22;;;;;;;2.58;1.84;;;;;;;18.21;64.04;99398.09;2043979;70;20298;-83
2021/07/01 16:06:25;;;;;;;1.84;1.73;;;;;;;18.22;64.64;99393.69;2018921;80;20238;-81
2021/07/01 16:09:30;;;;;;;4.15;2.10;;;;;;;18.28;64.39;99396.97;2014367;80;20201;-81
2021/07/01 16:12:35;;;;;;;2.38;2.17;;;;;;;18.42;64.28;99399.97;2016221;80;20249;-82
2021/07/01 16:15:40;;;;;;;2.06;1.91;;;;;;;18.70;64.11;99391.97;2015912;80;20184;-82
2021/07/01 16:18:48;;;;;;;2.46;2.26;;;;;;;19.34;62.96;99380.69;2018496;80;20185;-83
2021/07/01 16:21:52;;;;;;;2.03;1.92;;;;;;;19.95;60.86;99375.56;2018695;80;20215;-83
2021/07/01 16:24:57;;;;;;;4.05;2.10;;;;;;;20.59;60.38;99366.59;2017262;80;20408;-82
2021/07/01 16:28:02;;;;;;;3.46;2.22;;;;;;;20.90;55.67;99372.19;2018547;80;20169;-81
2021/07/01 16:31:11;;;;;;;2.38;2.09;;;;;;;21.17;55.11;99362.06;2013725;78;134265;-83
2021/07/01 16:34:16;;;;;;;2.51;2.14;;;;;;;21.33;53.82;99356.94;2017312;80;20209;-82
2021/07/01 16:37:21;;;;;;;2.35;2.15;;;;;;;21.39;51.99;99357.50;2016122;80;20176;-83
2021/07/01 16:40:32;;;;;;;3.36;2.05;;;;;;;21.35;52.18;99363.00;2018149;80;20173;-83
2021/07/01 16:43:35;;;;;;;4.46;2.11;;;;;;;21.29;54.09;99365.94;2019107;80;20201;-83
2021/07/01 16:46:38;;;;;;;2.79;2.08;;;;;;;21.09;54.12;99361.59;2019300;80;20292;-84
2021/07/01 16:49:44;;;;;;;2.94;2.30;;;;;;;20.68;55.40;99368.81;2019262;80;20177;-83
2021/07/01 16:52:48;;;;;;;2.31;2.11;;;;;;;20.27;55.74;99370.63;2019914;80;20173;-82
2021/07/01 16:55:56;;;;;;;3.54;2.51;;;;;;;19.95;57.94;99372.91;2015175;80;20181;-79
2021/07/01 16:59:03;;;;;;;2.24;2.09;;;;;;;19.62;57.76;99377.84;2008448;80;21118;-77
2021/07/01 17:02:06;;;;;;;2.83;2.40;;;;;;;19.50;60.01;99381.78;2006940;78;20900;-77
2021/07/01 17:05:10;;;;;;;3.10;1.75;;;;;;;19.44;60.13;99384.69;2007544;80;20213;-77
2021/07/01 17:08:15;;;;;;;2.28;2.06;;;;;;;19.28;59.21;99378.31;2007072;80;20291;-78
2021/07/01 17:11:19;;;;;;;4.07;2.00;;;;;;;19.18;59.50;99371.69;2006765;80;20277;-77
2021/07/01 17:14:22;;;;;;;1.95;1.85;;;;;;;19.21;61.21;99371.56;2006912;80;20189;-78
2021/07/01 17:17:28;;;;;;;2.89;2.08;;;;;;;19.25;60.18;99378.44;2007775;80;20935;-78
2021/07/01 17:20:31;;;;;;;4.04;2.25;;;;;;;19.32;60.27;99380.75;2006100;80;20711;-79
2021/07/01 17:23:37;;;;;;;3.26;2.16;;;;;;;19.28;59.27;99376.53;2006526;80;20654;-78
2021/07/01 17:26:40;;;;;;;4.29;2.10;;;;;;;19.25;59.70;99374.03;2006731;80;20734;-78
2021/07/01 17:29:43;;;;;;;2.65;2.22;;;;;;;19.19;60.71;99370.75;2007137;80;20182;-78
2021/07/01 17:32:50;;;;;;;3.10;2.13;;;;;;;19.16;62.39;99370.91;2008300;78;21546;-78